createdAt,value
2022-10-05T00:02:34.165Z,4.90
2022-10-05T00:07:38.239Z,5.32
2022-10-05T00:12:42.092Z,5.20
2022-10-05T00:17:45.769Z,5.40
2022-10-05T00:22:52.031Z,5.25
2022-10-05T00:27:58.548Z,5.63
2022-10-05T00:33:01.365Z,5.50
2022-10-05T00:38:05.471Z,5.47
2022-10-05T00:43:31.972Z,5.03
2022-10-05T00:48:45.235Z,5.50
2022-10-05T00:53:58.134Z,5.18
2022-10-05T00:59:13.576Z,5.38
2022-10-05T01:04:21.700Z,5.28
2022-10-05T01:09:34.308Z,5.70
2022-10-05T01:14:47.471Z,5.20
2022-10-05T01:20:07.994Z,5.05
2022-10-05T01:25:22.889Z,5.55
2022-10-05T01:30:27.198Z,5.20
2022-10-05T01:35:42.407Z,4.93
2022-10-05T01:40:53.907Z,5.72
2022-10-05T01:46:04.435Z,5.47
2022-10-05T01:51:16.250Z,5.75
2022-10-05T01:56:26.274Z,5.57
2022-10-05T02:01:36.836Z,5.13
2022-10-05T02:06:44.898Z,5.22
2022-10-05T02:11:54.736Z,5.13
2022-10-05T02:17:03.202Z,5.28
2022-10-05T02:22:09.720Z,5.70
2022-10-05T02:27:20.426Z,5.72
2022-10-05T02:32:28.532Z,5.78
2022-10-05T02:37:42.083Z,5.00
2022-10-05T02:42:52.422Z,4.78
2022-10-05T02:48:09.149Z,5.93
2022-10-05T02:53:23.233Z,5.75
2022-10-05T02:58:30.113Z,5.13
2022-10-05T03:03:41.482Z,5.80
2022-10-05T03:08:52.492Z,6.20
2022-10-05T03:14:04.143Z,5.25
2022-10-05T03:19:23.271Z,5.47
2022-10-05T03:24:39.230Z,6.35
2022-10-05T03:29:50.161Z,5.35
2022-10-05T03:35:02.131Z,5.72
2022-10-05T03:40:14.392Z,5.50
2022-10-05T03:45:27.538Z,5.75
2022-10-05T03:50:45.460Z,6.07
2022-10-05T03:55:53.392Z,6.15
2022-10-05T04:01:09.798Z,6.28
2022-10-05T04:06:18.806Z,6.65
2022-10-05T04:11:27.469Z,7.28
2022-10-05T04:16:35.736Z,7.18
2022-10-05T04:21:48.140Z,7.13
2022-10-05T04:26:55.386Z,6.88
2022-10-05T04:32:25.283Z,6.50
2022-10-05T04:37:42.077Z,7.07
2022-10-05T04:43:00.790Z,7.25
2022-10-05T04:48:36.374Z,6.70
2022-10-05T04:53:52.227Z,7.15
2022-10-05T04:59:09.661Z,6.65
2022-10-05T05:04:28.956Z,7.32
2022-10-05T05:10:13.824Z,7.47
2022-10-05T05:15:27.602Z,7.28
2022-10-05T05:20:42.646Z,7.60
2022-10-05T05:25:58.323Z,8.00
2022-10-05T05:31:11.558Z,8.02
2022-10-05T05:36:49.897Z,8.27
2022-10-05T05:42:17.729Z,8.73
2022-10-05T05:47:28.825Z,9.07
2022-10-05T05:52:40.002Z,8.65
2022-10-05T05:57:49.580Z,8.32
2022-10-05T06:02:59.697Z,8.48
2022-10-05T06:08:14.263Z,8.65
2022-10-05T06:13:23.412Z,7.97
2022-10-05T06:18:26.916Z,8.57
2022-10-05T06:23:44.117Z,8.85
2022-10-05T06:28:53.031Z,9.10
2022-10-05T06:34:05.683Z,8.15
2022-10-05T06:39:26.037Z,8.57
2022-10-05T06:44:34.798Z,8.35
2022-10-05T06:50:13.651Z,7.93
2022-10-05T06:55:46.756Z,7.88
2022-10-05T07:00:55.114Z,7.97
2022-10-05T07:06:11.817Z,11.90
2022-10-05T07:11:28.233Z,7.55
2022-10-05T07:16:42.730Z,7.40
2022-10-05T07:21:58.490Z,7.82
2022-10-05T07:27:14.474Z,7.75
2022-10-05T07:32:33.833Z,7.50
2022-10-05T07:37:57.661Z,7.75
2022-10-05T07:43:20.127Z,7.63
2022-10-05T07:48:33.063Z,7.30
2022-10-05T07:53:40.264Z,7.13
2022-10-05T07:58:49.197Z,7.03
2022-10-05T08:03:56.960Z,7.22
2022-10-05T08:09:05.407Z,6.40
2022-10-05T08:14:18.021Z,7.32
2022-10-05T08:19:24.499Z,7.50
2022-10-05T08:24:42.056Z,7.53
2022-10-05T08:29:56.405Z,8.15
2022-10-05T08:35:05.902Z,8.48
2022-10-05T08:40:26.634Z,7.53
2022-10-05T08:46:02.045Z,6.78
2022-10-05T08:51:42.122Z,9.15
2022-10-05T08:56:59.599Z,6.90
2022-10-05T09:02:21.490Z,6.28
2022-10-05T09:08:02.661Z,7.32
2022-10-05T09:13:34.475Z,6.65
2022-10-05T09:19:15.688Z,6.68
2022-10-05T09:24:28.743Z,6.40
2022-10-05T09:30:04.818Z,6.13
2022-10-05T09:35:22.200Z,6.47
2022-10-05T09:41:04.920Z,12.38
2022-10-05T09:46:46.735Z,27.00
2022-10-05T09:52:11.571Z,7.95
2022-10-05T09:58:12.470Z,11.27
2022-10-05T10:03:45.346Z,6.22
2022-10-05T10:09:07.138Z,8.10
2022-10-05T10:14:40.291Z,7.18
2022-10-05T10:20:09.670Z,5.45
2022-10-05T10:25:38.632Z,6.10
2022-10-05T10:31:00.778Z,5.65
2022-10-05T10:36:13.100Z,6.40
2022-10-05T10:41:47.781Z,5.28
2022-10-05T10:47:06.130Z,6.47
2022-10-05T10:52:41.411Z,6.78
2022-10-05T10:58:01.745Z,7.30
2022-10-05T11:03:52.648Z,6.20
2022-10-05T11:09:39.858Z,6.57
2022-10-05T11:15:08.237Z,6.18
2022-10-05T11:20:43.702Z,10.30
2022-10-05T11:26:02.502Z,5.47
2022-10-05T11:31:42.984Z,6.50
2022-10-05T11:37:17.038Z,8.88
2022-10-05T11:42:53.682Z,14.63
2022-10-05T11:48:24.550Z,7.85
2022-10-05T11:53:37.418Z,7.53
2022-10-05T11:58:44.873Z,4.97
2022-10-05T12:03:59.713Z,4.30
2022-10-05T12:09:23.876Z,4.57
2022-10-05T12:14:39.741Z,4.60
2022-10-05T12:19:47.965Z,4.40
2022-10-05T12:30:15.069Z,10.25
2022-10-05T12:35:43.920Z,6.53
2022-10-05T12:40:53.155Z,3.70
2022-10-05T12:46:08.709Z,4.00
2022-10-05T12:51:21.120Z,3.70
2022-10-05T12:56:35.710Z,4.25
2022-10-05T13:01:43.968Z,4.28
2022-10-05T13:07:03.463Z,4.20
2022-10-05T13:12:12.960Z,5.55
2022-10-05T13:17:22.700Z,4.40
2022-10-05T13:22:35.476Z,4.03
2022-10-05T13:27:46.008Z,4.05
2022-10-05T13:32:57.762Z,4.43
2022-10-05T13:38:11.304Z,5.35
2022-10-05T13:43:20.143Z,4.53
2022-10-05T13:48:46.443Z,4.25
2022-10-05T13:53:57.257Z,4.15
2022-10-05T13:59:11.900Z,3.85
2022-10-05T14:04:19.768Z,4.90
2022-10-05T14:09:36.613Z,3.90
2022-10-05T14:14:46.572Z,3.50
2022-10-05T14:19:51.015Z,3.58
2022-10-05T14:24:58.018Z,3.40
2022-10-05T14:30:03.726Z,3.55
2022-10-05T14:35:15.474Z,3.72
2022-10-05T14:40:26.680Z,4.07
2022-10-05T14:45:31.050Z,3.50
2022-10-05T14:50:34.376Z,3.97
2022-10-05T14:56:03.834Z,3.53
2022-10-05T15:01:18.002Z,3.40
2022-10-05T15:06:28.764Z,3.40
2022-10-05T15:11:43.139Z,3.10
2022-10-05T15:16:47.001Z,8.15
2022-10-05T15:22:03.990Z,4.20
2022-10-05T15:27:18.278Z,7.80
2022-10-05T15:32:32.883Z,6.10
2022-10-05T15:37:42.184Z,5.22
2022-10-05T15:42:46.409Z,3.50
2022-10-05T15:47:57.175Z,3.50
2022-10-05T15:53:11.941Z,5.05
2022-10-05T15:58:39.518Z,3.72
2022-10-05T16:03:49.176Z,3.90
2022-10-05T16:09:04.508Z,3.40
2022-10-05T16:14:18.364Z,3.72
2022-10-05T16:19:27.660Z,4.28
2022-10-05T16:24:56.621Z,10.77
2022-10-05T16:30:08.800Z,5.35
2022-10-05T16:35:25.420Z,4.90
2022-10-05T16:40:37.823Z,11.55
2022-10-05T16:45:56.844Z,4.90
2022-10-05T16:51:14.650Z,4.70
2022-10-05T16:56:21.249Z,4.27
2022-10-05T17:01:39.736Z,5.97
2022-10-05T17:12:31.244Z,5.25
2022-10-05T17:17:53.854Z,3.33
2022-10-05T17:23:04.014Z,4.38
2022-10-05T17:28:23.124Z,3.20
2022-10-05T17:33:29.301Z,4.93
2022-10-05T17:38:49.206Z,5.85
2022-10-05T17:44:19.426Z,5.35
2022-10-05T17:49:36.377Z,4.35
2022-10-05T17:55:30.526Z,3.50
2022-10-05T18:01:04.619Z,5.60
2022-10-05T18:06:44.669Z,4.20
2022-10-05T18:12:06.119Z,6.50
2022-10-05T18:17:13.354Z,7.55
2022-10-05T18:22:30.276Z,3.60
2022-10-05T18:28:08.550Z,3.67
2022-10-05T18:33:45.644Z,3.47
2022-10-05T18:38:58.606Z,4.00
2022-10-05T18:44:22.970Z,5.38
2022-10-05T18:49:50.543Z,4.28
2022-10-05T18:55:04.216Z,4.40
2022-10-05T19:00:15.800Z,4.05
2022-10-05T19:05:49.302Z,3.60
2022-10-05T19:11:02.871Z,3.40
2022-10-05T19:16:27.059Z,3.22
2022-10-05T19:21:40.188Z,3.03
2022-10-05T19:27:02.300Z,2.75
2022-10-05T19:32:17.508Z,3.15
2022-10-05T19:37:27.853Z,2.67
2022-10-05T19:42:48.861Z,3.28
2022-10-05T19:48:09.949Z,2.63
2022-10-05T19:53:14.522Z,4.05
2022-10-05T19:58:25.189Z,2.35
2022-10-05T20:03:38.572Z,2.80
2022-10-05T20:08:43.766Z,2.42
2022-10-05T20:14:11.561Z,2.70
2022-10-05T20:19:49.461Z,3.15
2022-10-05T20:24:54.088Z,2.78
2022-10-05T20:29:58.664Z,2.72
2022-10-05T20:35:01.879Z,3.17
2022-10-05T20:40:05.768Z,2.60
2022-10-05T20:45:11.558Z,2.90
2022-10-05T20:50:15.294Z,2.75
2022-10-05T20:55:18.231Z,3.03
2022-10-05T21:00:22.508Z,2.70
2022-10-05T21:05:25.384Z,2.85
2022-10-05T21:10:28.129Z,2.75
2022-10-05T21:15:32.443Z,2.40
2022-10-05T21:20:35.184Z,3.38
2022-10-05T21:25:38.060Z,3.03
2022-10-05T21:30:42.111Z,2.63
2022-10-05T21:35:44.827Z,2.47
2022-10-05T21:40:47.576Z,2.80
2022-10-05T21:45:51.796Z,2.63
2022-10-05T21:50:54.658Z,2.10
2022-10-05T21:56:02.693Z,2.35
2022-10-05T22:01:07.984Z,2.10
2022-10-05T22:06:11.083Z,2.28
2022-10-05T22:11:16.084Z,2.10
2022-10-05T22:16:22.839Z,1.80
2022-10-05T22:21:25.655Z,1.80
2022-10-05T22:26:28.432Z,2.85
2022-10-05T22:31:32.667Z,1.65
2022-10-05T22:36:35.629Z,1.75
2022-10-05T22:41:38.306Z,1.92
2022-10-05T22:46:42.403Z,1.90
2022-10-05T22:51:45.159Z,1.90
2022-10-05T22:56:47.940Z,1.80
2022-10-05T23:01:52.080Z,1.15
2022-10-05T23:06:55.106Z,1.10
2022-10-05T23:11:58.108Z,1.30
2022-10-05T23:17:02.240Z,0.90
2022-10-05T23:22:04.978Z,1.10
2022-10-05T23:27:07.801Z,1.00
2022-10-05T23:32:11.933Z,1.13
2022-10-05T23:37:14.688Z,1.00
2022-10-05T23:42:17.483Z,0.70
2022-10-05T23:47:21.557Z,0.60
2022-10-05T23:52:24.406Z,0.60
2022-10-05T23:57:27.106Z,0.60
